sensor_id;sensor_type;location;lat;lon;timestamp;pressure;altitude;pressure_sealevel;temperature;humidity
32735;BME280;19112;51.076;3.706;2022-09-01T00:01:36;101843.56;;;20.57;50.00
32735;BME280;19112;51.076;3.706;2022-09-01T00:04:04;101766.66;;;20.11;50.21
32735;BME280;19112;51.076;3.706;2022-09-01T00:06:32;101875.59;;;20.57;50.54
32735;BME280;19112;51.076;3.706;2022-09-01T00:09:04;101835.34;;;20.38;50.54
32735;BME280;19112;51.076;3.706;2022-09-01T00:11:31;101735.28;;;19.78;50.70
32735;BME280;19112;51.076;3.706;2022-09-01T00:13:59;101806.72;;;20.16;50.81
32735;BME280;19112;51.076;3.706;2022-09-01T00:16:27;101826.38;;;20.29;51.03
32735;BME280;19112;51.076;3.706;2022-09-01T00:18:54;101640.53;;;19.20;51.17
32735;BME280;19112;51.076;3.706;2022-09-01T00:21:27;101731.56;;;19.61;50.98
32735;BME280;19112;51.076;3.706;2022-09-01T00:23:53;101329.75;;;17.24;51.20
32735;BME280;19112;51.076;3.706;2022-09-01T00:26:19;101823.41;;;19.97;51.17
32735;BME280;19112;51.076;3.706;2022-09-01T00:28:45;101831.44;;;20.00;51.39
32735;BME280;19112;51.076;3.706;2022-09-01T00:31:12;101627.72;;;18.85;51.31
32735;BME280;19112;51.076;3.706;2022-09-01T00:33:40;101579.34;;;18.47;51.25
32735;BME280;19112;51.076;3.706;2022-09-01T00:36:06;101310.75;;;16.93;51.18
32735;BME280;19112;51.076;3.706;2022-09-01T00:38:33;101889.44;;;20.24;51.30
32735;BME280;19112;51.076;3.706;2022-09-01T00:40:59;101860.81;;;20.06;51.12
32735;BME280;19112;51.076;3.706;2022-09-01T00:43:43;101894.75;;;20.19;51.11
32735;BME280;19112;51.076;3.706;2022-09-01T00:46:18;101824.06;;;19.74;51.29
32735;BME280;19112;51.076;3.706;2022-09-01T00:48:46;101666.59;;;18.74;51.16
32735;BME280;19112;51.076;3.706;2022-09-01T00:51:15;101884.75;;;20.00;51.34
32735;BME280;19112;51.076;3.706;2022-09-01T00:53:43;101771.97;;;19.26;51.11
32735;BME280;19112;51.076;3.706;2022-09-01T00:56:11;101892.66;;;19.91;51.01
32735;BME280;19112;51.076;3.706;2022-09-01T00:58:38;101631.56;;;18.42;50.67
32735;BME280;19112;51.076;3.706;2022-09-01T01:01:07;101814.84;;;19.49;50.81
32735;BME280;19112;51.076;3.706;2022-09-01T01:03:33;101729.97;;;19.05;50.50
32735;BME280;19112;51.076;3.706;2022-09-01T01:06:04;101839.97;;;19.67;50.42
32735;BME280;19112;51.076;3.706;2022-09-01T01:08:35;101869.41;;;19.80;50.13
32735;BME280;19112;51.076;3.706;2022-09-01T01:11:05;101785.38;;;19.35;50.00
32735;BME280;19112;51.076;3.706;2022-09-01T01:13:32;101334.44;;;16.81;49.97
32735;BME280;19112;51.076;3.706;2022-09-01T01:16:13;101885.59;;;19.93;49.75
32735;BME280;19112;51.076;3.706;2022-09-01T01:18:41;101858.56;;;19.63;49.56
32735;BME280;19112;51.076;3.706;2022-09-01T01:21:16;101847.06;;;19.66;49.56
32735;BME280;19112;51.076;3.706;2022-09-01T01:24:21;101875.75;;;19.90;49.54
32735;BME280;19112;51.076;3.706;2022-09-01T01:26:47;101883.75;;;19.92;49.29
32735;BME280;19112;51.076;3.706;2022-09-01T01:29:14;101854.31;;;19.76;49.33
32735;BME280;19112;51.076;3.706;2022-09-01T01:31:40;101615.59;;;18.39;49.28
32735;BME280;19112;51.076;3.706;2022-09-01T01:34:06;101753.94;;;19.04;49.02
32735;BME280;19112;51.076;3.706;2022-09-01T01:36:36;101880.00;;;19.74;49.08
32735;BME280;19112;51.076;3.706;2022-09-01T01:39:17;101633.25;;;18.37;49.00
32735;BME280;19112;51.076;3.706;2022-09-01T01:41:44;101660.00;;;18.46;48.88
32735;BME280;19112;51.076;3.706;2022-09-01T01:44:15;101641.25;;;18.37;48.68
32735;BME280;19112;51.076;3.706;2022-09-01T01:46:49;101890.75;;;19.79;48.55
32735;BME280;19112;51.076;3.706;2022-09-01T01:49:17;101624.22;;;18.22;48.33
32735;BME280;19112;51.076;3.706;2022-09-01T01:51:46;101701.06;;;18.66;48.39
32735;BME280;19112;51.076;3.706;2022-09-01T01:54:13;101842.94;;;19.24;48.56
32735;BME280;19112;51.076;3.706;2022-09-01T01:56:40;101730.38;;;18.68;48.91
32735;BME280;19112;51.076;3.706;2022-09-01T01:59:08;101829.78;;;19.36;48.55
32735;BME280;19112;51.076;3.706;2022-09-01T02:01:38;101627.72;;;18.21;48.62
32735;BME280;19112;51.076;3.706;2022-09-01T02:04:09;101795.78;;;19.17;48.79
32735;BME280;19112;51.076;3.706;2022-09-01T02:06:36;101779.69;;;19.06;48.69
32735;BME280;19112;51.076;3.706;2022-09-01T02:09:06;101877.22;;;19.62;48.56
32735;BME280;19112;51.076;3.706;2022-09-01T02:11:33;101876.22;;;19.58;48.58
32735;BME280;19112;51.076;3.706;2022-09-01T02:14:03;101802.94;;;19.18;48.49
32735;BME280;19112;51.076;3.706;2022-09-01T02:16:31;101888.66;;;19.58;48.60
32735;BME280;19112;51.076;3.706;2022-09-01T02:18:59;101700.94;;;18.57;48.41
32735;BME280;19112;51.076;3.706;2022-09-01T02:21:25;101853.97;;;19.53;48.24
32735;BME280;19112;51.076;3.706;2022-09-01T02:23:56;101843.94;;;19.32;48.20
32735;BME280;19112;51.076;3.706;2022-09-01T02:26:34;101829.63;;;19.24;48.48
32735;BME280;19112;51.076;3.706;2022-09-01T02:29:03;101714.16;;;18.52;48.50
32735;BME280;19112;51.076;3.706;2022-09-01T02:31:32;101702.44;;;18.38;48.57
32735;BME280;19112;51.076;3.706;2022-09-01T02:34:00;101870.59;;;19.34;48.57
32735;BME280;19112;51.076;3.706;2022-09-01T02:36:26;101641.66;;;18.03;48.78
32735;BME280;19112;51.076;3.706;2022-09-01T02:38:53;101764.13;;;18.70;48.54
32735;BME280;19112;51.076;3.706;2022-09-01T02:41:19;101549.84;;;17.68;48.63
32735;BME280;19112;51.076;3.706;2022-09-01T02:43:50;101538.25;;;17.61;48.39
32735;BME280;19112;51.076;3.706;2022-09-01T02:46:15;101829.69;;;19.29;48.46
32735;BME280;19112;51.076;3.706;2022-09-01T02:48:43;101670.53;;;18.38;48.34
32735;BME280;19112;51.076;3.706;2022-09-01T02:51:16;101803.75;;;19.13;48.35
32735;BME280;19112;51.076;3.706;2022-09-01T02:53:45;101849.31;;;19.37;48.43
32735;BME280;19112;51.076;3.706;2022-09-01T02:56:14;101792.09;;;19.04;48.38
32735;BME280;19112;51.076;3.706;2022-09-01T02:58:43;101298.19;;;16.27;48.28
32735;BME280;19112;51.076;3.706;2022-09-01T03:01:27;101635.81;;;18.27;48.38
32735;BME280;19112;51.076;3.706;2022-09-01T03:04:00;101861.88;;;19.47;48.24
32735;BME280;19112;51.076;3.706;2022-09-01T03:06:27;101815.28;;;19.13;48.56
32735;BME280;19112;51.076;3.706;2022-09-01T03:08:57;101208.66;;;15.58;48.67
32735;BME280;19112;51.076;3.706;2022-09-01T03:11:30;101505.94;;;17.32;48.72
32735;BME280;19112;51.076;3.706;2022-09-01T03:13:57;101789.34;;;18.97;49.03
32735;BME280;19112;51.076;3.706;2022-09-01T03:16:23;101689.97;;;18.36;49.17
32735;BME280;19112;51.076;3.706;2022-09-01T03:18:49;101779.44;;;18.87;49.28
32735;BME280;19112;51.076;3.706;2022-09-01T03:21:15;101566.72;;;17.71;49.18
32735;BME280;19112;51.076;3.706;2022-09-01T03:23:44;101809.03;;;19.11;49.20
32735;BME280;19112;51.076;3.706;2022-09-01T03:26:11;101591.00;;;17.91;49.18
32735;BME280;19112;51.076;3.706;2022-09-01T03:28:37;101844.78;;;19.30;49.16
32735;BME280;19112;51.076;3.706;2022-09-01T03:31:04;101765.03;;;18.72;49.44
32735;BME280;19112;51.076;3.706;2022-09-01T03:33:30;101513.81;;;17.27;49.59
32735;BME280;19112;51.076;3.706;2022-09-01T03:35:57;101596.16;;;17.84;49.73
32735;BME280;19112;51.076;3.706;2022-09-01T03:38:24;101841.94;;;19.16;49.91
32735;BME280;19112;51.076;3.706;2022-09-01T03:40:55;101842.88;;;19.20;49.85
32735;BME280;19112;51.076;3.706;2022-09-01T03:43:24;101836.53;;;19.10;50.04
32735;BME280;19112;51.076;3.706;2022-09-01T03:45:53;101834.69;;;19.04;50.22
32735;BME280;19112;51.076;3.706;2022-09-01T03:48:22;101772.81;;;18.62;50.57
32735;BME280;19112;51.076;3.706;2022-09-01T03:50:50;101861.16;;;18.95;50.70
32735;BME280;19112;51.076;3.706;2022-09-01T03:53:19;101697.53;;;18.10;50.70
32735;BME280;19112;51.076;3.706;2022-09-01T03:55:48;101711.81;;;18.16;50.94
32735;BME280;19112;51.076;3.706;2022-09-01T03:58:18;101843.16;;;18.77;51.27
32735;BME280;19112;51.076;3.706;2022-09-01T04:00:50;101661.47;;;17.71;51.33
32735;BME280;19112;51.076;3.706;2022-09-01T04:03:23;101688.13;;;17.74;51.51
32735;BME280;19112;51.076;3.706;2022-09-01T04:05:51;101414.78;;;16.27;51.59
32735;BME280;19112;51.076;3.706;2022-09-01T04:08:19;101738.38;;;18.15;51.54
32735;BME280;19112;51.076;3.706;2022-09-01T04:10:52;101700.44;;;17.72;51.94
32735;BME280;19112;51.076;3.706;2022-09-01T04:13:30;101690.56;;;17.63;52.02
32735;BME280;19112;51.076;3.706;2022-09-01T04:15:59;101710.13;;;17.70;52.28
32735;BME280;19112;51.076;3.706;2022-09-01T04:18:25;101488.69;;;16.57;52.22
32735;BME280;19112;51.076;3.706;2022-09-01T04:20:57;101817.50;;;18.28;52.60
32735;BME280;19112;51.076;3.706;2022-09-01T04:23:31;101806.72;;;18.20;52.78
32735;BME280;19112;51.076;3.706;2022-09-01T04:26:05;101844.25;;;18.39;53.08
32735;BME280;19112;51.076;3.706;2022-09-01T04:28:39;101851.28;;;18.37;53.27
32735;BME280;19112;51.076;3.706;2022-09-01T04:31:08;101503.22;;;16.34;53.53
32735;BME280;19112;51.076;3.706;2022-09-01T04:33:37;101744.69;;;17.71;53.55
32735;BME280;19112;51.076;3.706;2022-09-01T04:36:15;101851.38;;;18.40;53.39
32735;BME280;19112;51.076;3.706;2022-09-01T04:38:45;101865.63;;;18.43;53.38
32735;BME280;19112;51.076;3.706;2022-09-01T04:41:12;101854.84;;;18.36;53.74
32735;BME280;19112;51.076;3.706;2022-09-01T04:43:48;101621.25;;;17.01;53.97
32735;BME280;19112;51.076;3.706;2022-09-01T04:46:17;101820.56;;;18.01;54.41
32735;BME280;19112;51.076;3.706;2022-09-01T04:48:44;101715.94;;;17.47;54.30
32735;BME280;19112;51.076;3.706;2022-09-01T04:51:12;101806.31;;;17.97;54.57
32735;BME280;19112;51.076;3.706;2022-09-01T04:53:39;101709.25;;;17.22;54.72
32735;BME280;19112;51.076;3.706;2022-09-01T04:56:07;101576.06;;;16.53;54.90
32735;BME280;19112;51.076;3.706;2022-09-01T04:58:36;101775.38;;;17.55;55.46
32735;BME280;19112;51.076;3.706;2022-09-01T05:01:12;101847.94;;;17.98;55.23
32735;BME280;19112;51.076;3.706;2022-09-01T05:03:38;101798.69;;;17.70;55.56
32735;BME280;19112;51.076;3.706;2022-09-01T05:06:04;101718.09;;;17.21;55.77
32735;BME280;19112;51.076;3.706;2022-09-01T05:08:37;101666.16;;;16.92;55.67
32735;BME280;19112;51.076;3.706;2022-09-01T05:11:05;101755.03;;;17.56;55.62
32735;BME280;19112;51.076;3.706;2022-09-01T05:13:32;101786.34;;;17.72;55.68
32735;BME280;19112;51.076;3.706;2022-09-01T05:16:05;101679.78;;;17.09;55.99
32735;BME280;19112;51.076;3.706;2022-09-01T05:18:32;101634.97;;;16.79;55.97
32735;BME280;19112;51.076;3.706;2022-09-01T05:21:04;101705.50;;;17.13;56.05
32735;BME280;19112;51.076;3.706;2022-09-01T05:23:34;101676.66;;;16.86;56.20
32735;BME280;19112;51.076;3.706;2022-09-01T05:26:01;101795.03;;;17.65;56.16
32735;BME280;19112;51.076;3.706;2022-09-01T05:28:28;101854.03;;;17.91;56.24
32735;BME280;19112;51.076;3.706;2022-09-01T05:30:54;101843.41;;;17.91;56.35
32735;BME280;19112;51.076;3.706;2022-09-01T05:33:21;101844.19;;;17.86;56.44
32735;BME280;19112;51.076;3.706;2022-09-01T05:35:56;101684.00;;;16.99;56.40
32735;BME280;19112;51.076;3.706;2022-09-01T05:38:24;101785.00;;;17.50;56.47
32735;BME280;19112;51.076;3.706;2022-09-01T05:41:02;101828.97;;;17.78;56.78
32735;BME280;19112;51.076;3.706;2022-09-01T05:43:30;101757.38;;;17.41;56.71
32735;BME280;19112;51.076;3.706;2022-09-01T05:45:57;101626.69;;;16.66;56.79
32735;BME280;19112;51.076;3.706;2022-09-01T05:48:26;101711.72;;;17.13;56.95
32735;BME280;19112;51.076;3.706;2022-09-01T05:50:57;101793.16;;;17.60;56.92
32735;BME280;19112;51.076;3.706;2022-09-01T05:53:25;101850.59;;;17.97;56.92
32735;BME280;19112;51.076;3.706;2022-09-01T05:55:53;101777.25;;;17.61;56.79
32735;BME280;19112;51.076;3.706;2022-09-01T05:58:26;101847.00;;;17.95;56.79
32735;BME280;19112;51.076;3.706;2022-09-01T06:00:54;101624.41;;;16.82;56.73
32735;BME280;19112;51.076;3.706;2022-09-01T06:03:22;101832.97;;;18.02;56.85
32735;BME280;19112;51.076;3.706;2022-09-01T06:05:49;101855.91;;;17.97;57.05
32735;BME280;19112;51.076;3.706;2022-09-01T06:08:22;101815.75;;;17.80;56.93
32735;BME280;19112;51.076;3.706;2022-09-01T06:10:51;101736.69;;;17.24;56.42
32735;BME280;19112;51.076;3.706;2022-09-01T06:13:18;101852.38;;;17.98;56.63
32735;BME280;19112;51.076;3.706;2022-09-01T06:15:50;101820.31;;;17.89;56.48
32735;BME280;19112;51.076;3.706;2022-09-01T06:18:19;101786.34;;;17.72;56.49
32735;BME280;19112;51.076;3.706;2022-09-01T06:20:47;101729.81;;;17.34;56.20
32735;BME280;19112;51.076;3.706;2022-09-01T06:23:14;101845.47;;;18.06;56.38
32735;BME280;19112;51.076;3.706;2022-09-01T06:25:45;101506.31;;;16.13;56.03
32735;BME280;19112;51.076;3.706;2022-09-01T06:28:16;101691.31;;;17.11;56.31
32735;BME280;19112;51.076;3.706;2022-09-01T06:30:46;101834.88;;;18.11;56.23
32735;BME280;19112;51.076;3.706;2022-09-01T06:33:14;101162.66;;;14.26;55.86
32735;BME280;19112;51.076;3.706;2022-09-01T06:35:43;101727.97;;;17.30;56.16
32735;BME280;19112;51.076;3.706;2022-09-01T06:38:13;101841.13;;;18.11;56.38
32735;BME280;19112;51.076;3.706;2022-09-01T06:40:42;101444.69;;;15.79;56.38
32735;BME280;19112;51.076;3.706;2022-09-01T06:43:09;101620.09;;;16.87;56.24
32735;BME280;19112;51.076;3.706;2022-09-01T06:45:44;101620.28;;;16.96;56.22
32735;BME280;19112;51.076;3.706;2022-09-01T06:48:14;101792.22;;;18.01;56.02
32735;BME280;19112;51.076;3.706;2022-09-01T06:50:42;101824.50;;;18.23;56.25
32735;BME280;19112;51.076;3.706;2022-09-01T06:53:08;101752.19;;;17.94;55.81
32735;BME280;19112;51.076;3.706;2022-09-01T06:55:41;101731.69;;;17.85;55.12
32735;BME280;19112;51.076;3.706;2022-09-01T06:58:09;101780.03;;;18.14;54.74
32735;BME280;19112;51.076;3.706;2022-09-01T07:00:38;101550.22;;;16.85;54.49
32735;BME280;19112;51.076;3.706;2022-09-01T07:03:08;101777.53;;;18.23;54.64
32735;BME280;19112;51.076;3.706;2022-09-01T07:05:46;101747.25;;;18.15;54.40
32735;BME280;19112;51.076;3.706;2022-09-01T07:08:15;101772.38;;;18.32;54.69
32735;BME280;19112;51.076;3.706;2022-09-01T07:10:49;101757.34;;;18.36;53.72
32735;BME280;19112;51.076;3.706;2022-09-01T07:13:20;101783.31;;;18.52;53.89
32735;BME280;19112;51.076;3.706;2022-09-01T07:15:52;101860.41;;;19.04;54.04
32735;BME280;19112;51.076;3.706;2022-09-01T07:18:23;101872.91;;;19.11;53.82
32735;BME280;19112;51.076;3.706;2022-09-01T07:20:53;101886.03;;;18.97;53.88
32735;BME280;19112;51.076;3.706;2022-09-01T07:23:20;101646.22;;;17.61;53.88
32735;BME280;19112;51.076;3.706;2022-09-01T07:25:48;101588.34;;;17.40;53.80
32735;BME280;19112;51.076;3.706;2022-09-01T07:28:16;101833.63;;;18.95;53.64
32735;BME280;19112;51.076;3.706;2022-09-01T07:30:46;101874.03;;;19.27;53.30
32735;BME280;19112;51.076;3.706;2022-09-01T07:33:14;101656.47;;;17.89;53.23
32735;BME280;19112;51.076;3.706;2022-09-01T07:35:41;101653.00;;;17.93;53.22
32735;BME280;19112;51.076;3.706;2022-09-01T07:38:08;101833.03;;;19.13;53.43
32735;BME280;19112;51.076;3.706;2022-09-01T07:40:40;101637.13;;;17.96;52.92
32735;BME280;19112;51.076;3.706;2022-09-01T07:43:19;101885.84;;;19.47;53.46
32735;BME280;19112;51.076;3.706;2022-09-01T07:45:49;101751.94;;;18.86;52.96
32735;BME280;19112;51.076;3.706;2022-09-01T07:48:18;101847.44;;;19.28;52.97
32735;BME280;19112;51.076;3.706;2022-09-01T07:50:48;101847.47;;;19.33;53.07
32735;BME280;19112;51.076;3.706;2022-09-01T07:53:34;101877.34;;;19.71;52.95
32735;BME280;19112;51.076;3.706;2022-09-01T07:56:07;101711.22;;;18.93;52.46
32735;BME280;19112;51.076;3.706;2022-09-01T07:58:36;101785.53;;;19.49;52.51
32735;BME280;19112;51.076;3.706;2022-09-01T08:01:08;101827.81;;;19.93;52.23
32735;BME280;19112;51.076;3.706;2022-09-01T08:03:35;101872.59;;;20.25;52.07
32735;BME280;19112;51.076;3.706;2022-09-01T08:06:07;101632.38;;;19.06;51.91
32735;BME280;19112;51.076;3.706;2022-09-01T08:08:36;101766.44;;;19.85;51.17
32735;BME280;19112;51.076;3.706;2022-09-01T08:11:02;101792.28;;;19.96;51.48
32735;BME280;19112;51.076;3.706;2022-09-01T08:13:29;101758.41;;;19.82;51.63
32735;BME280;19112;51.076;3.706;2022-09-01T08:15:55;101843.41;;;20.45;51.64
32735;BME280;19112;51.076;3.706;2022-09-01T08:18:20;101771.19;;;20.22;51.10
32735;BME280;19112;51.076;3.706;2022-09-01T08:20:46;101808.00;;;20.59;50.77
32735;BME280;19112;51.076;3.706;2022-09-01T08:23:17;101748.16;;;20.30;50.46
32735;BME280;19112;51.076;3.706;2022-09-01T08:25:45;101821.50;;;20.87;50.27
32735;BME280;19112;51.076;3.706;2022-09-01T08:28:13;101804.53;;;20.77;50.50
32735;BME280;19112;51.076;3.706;2022-09-01T08:30:41;101798.25;;;20.64;50.27
32735;BME280;19112;51.076;3.706;2022-09-01T08:33:08;101833.06;;;20.81;50.24
32735;BME280;19112;51.076;3.706;2022-09-01T08:35:41;101800.13;;;20.78;50.32
32735;BME280;19112;51.076;3.706;2022-09-01T08:38:09;101801.97;;;20.92;50.07
32735;BME280;19112;51.076;3.706;2022-09-01T08:40:35;101831.50;;;21.15;50.45
32735;BME280;19112;51.076;3.706;2022-09-01T08:45:56;101770.09;;;21.23;49.18
32735;BME280;19112;51.076;3.706;2022-09-01T08:48:40;101764.84;;;21.43;49.36
32735;BME280;19112;51.076;3.706;2022-09-01T08:51:42;101859.53;;;22.23;48.88
32735;BME280;19112;51.076;3.706;2022-09-01T08:54:36;101853.31;;;22.62;48.15
32735;BME280;19112;51.076;3.706;2022-09-01T08:57:15;101859.56;;;22.81;47.79
32735;BME280;19112;51.076;3.706;2022-09-01T08:59:42;101785.53;;;22.39;46.87
32735;BME280;19112;51.076;3.706;2022-09-01T09:02:47;101860.47;;;22.88;46.67
32735;BME280;19112;51.076;3.706;2022-09-01T09:17:24;101764.09;;;22.60;46.13
32735;BME280;19112;51.076;3.706;2022-09-01T09:19:53;101872.00;;;23.20;46.08
32735;BME280;19112;51.076;3.706;2022-09-01T09:22:19;101361.47;;;20.40;45.76
32735;BME280;19112;51.076;3.706;2022-09-01T09:25:07;101753.34;;;22.63;45.91
32735;BME280;19112;51.076;3.706;2022-09-01T09:27:38;101612.50;;;22.04;45.71
32735;BME280;19112;51.076;3.706;2022-09-01T09:33:01;101824.50;;;23.64;44.98
32735;BME280;19112;51.076;3.706;2022-09-01T09:35:38;101849.53;;;23.66;44.92
32735;BME280;19112;51.076;3.706;2022-09-01T09:38:24;101792.59;;;22.87;45.51
32735;BME280;19112;51.076;3.706;2022-09-01T09:43:55;101836.22;;;23.35;46.03
32735;BME280;19112;51.076;3.706;2022-09-01T09:46:39;101564.38;;;21.98;45.55
32735;BME280;19112;51.076;3.706;2022-09-01T09:49:19;101770.16;;;23.25;45.41
32735;BME280;19112;51.076;3.706;2022-09-01T09:57:21;101825.22;;;23.96;45.31
32735;BME280;19112;51.076;3.706;2022-09-01T10:00:06;101831.44;;;24.03;44.06
32735;BME280;19112;51.076;3.706;2022-09-01T10:02:42;101622.88;;;23.10;43.60
32735;BME280;19112;51.076;3.706;2022-09-01T10:07:55;101824.09;;;24.28;43.46
32735;BME280;19112;51.076;3.706;2022-09-01T10:10:48;101809.78;;;24.29;43.78
32735;BME280;19112;51.076;3.706;2022-09-01T10:13:22;101796.50;;;24.14;43.31
32735;BME280;19112;51.076;3.706;2022-09-01T10:16:02;101816.78;;;24.50;42.71
32735;BME280;19112;51.076;3.706;2022-09-01T10:18:39;101544.44;;;22.83;42.06
32735;BME280;19112;51.076;3.706;2022-09-01T10:21:20;101695.66;;;23.84;41.81
32735;BME280;19112;51.076;3.706;2022-09-01T10:23:48;101812.41;;;24.40;41.66
32735;BME280;19112;51.076;3.706;2022-09-01T10:26:33;101711.66;;;23.94;41.40
32735;BME280;19112;51.076;3.706;2022-09-01T10:29:49;101805.97;;;24.58;41.37
32735;BME280;19112;51.076;3.706;2022-09-01T10:32:25;101827.28;;;24.76;41.40
32735;BME280;19112;51.076;3.706;2022-09-01T10:34:52;101781.13;;;24.36;40.62
32735;BME280;19112;51.076;3.706;2022-09-01T10:37:19;101732.94;;;24.16;41.08
32735;BME280;19112;51.076;3.706;2022-09-01T10:40:14;101810.28;;;24.77;40.41
32735;BME280;19112;51.076;3.706;2022-09-01T10:42:43;101734.50;;;24.44;40.64
32735;BME280;19112;51.076;3.706;2022-09-01T10:45:33;101690.66;;;24.45;40.62
32735;BME280;19112;51.076;3.706;2022-09-01T10:50:45;101719.47;;;25.03;39.67
32735;BME280;19112;51.076;3.706;2022-09-01T10:59:27;101788.09;;;26.01;38.56
32735;BME280;19112;51.076;3.706;2022-09-01T11:07:04;101730.06;;;25.85;38.26
32735;BME280;19112;51.076;3.706;2022-09-01T11:09:38;101722.88;;;25.85;38.42
32735;BME280;19112;51.076;3.706;2022-09-01T11:15:40;101727.50;;;25.76;37.61
32735;BME280;19112;51.076;3.706;2022-09-01T11:18:16;101771.88;;;26.04;38.00
32735;BME280;19112;51.076;3.706;2022-09-01T11:20:49;101780.75;;;26.12;37.84
32735;BME280;19112;51.076;3.706;2022-09-01T11:23:26;101648.53;;;25.21;36.55
32735;BME280;19112;51.076;3.706;2022-09-01T11:25:58;101731.34;;;25.56;37.54
32735;BME280;19112;51.076;3.706;2022-09-01T11:31:15;101769.88;;;25.58;37.86
32735;BME280;19112;51.076;3.706;2022-09-01T11:34:01;101761.28;;;25.32;37.66
32735;BME280;19112;51.076;3.706;2022-09-01T11:45:20;101715.50;;;25.97;36.90
32735;BME280;19112;51.076;3.706;2022-09-01T11:47:56;101719.16;;;25.93;38.23
32735;BME280;19112;51.076;3.706;2022-09-01T11:50:36;101704.25;;;25.70;37.35
32735;BME280;19112;51.076;3.706;2022-09-01T11:53:08;101768.81;;;25.70;38.23
32735;BME280;19112;51.076;3.706;2022-09-01T11:55:43;101768.94;;;25.63;38.36
32735;BME280;19112;51.076;3.706;2022-09-01T11:58:33;101743.59;;;25.79;37.94
32735;BME280;19112;51.076;3.706;2022-09-01T12:01:21;101700.50;;;25.82;37.66
32735;BME280;19112;51.076;3.706;2022-09-01T12:03:50;101716.31;;;26.02;36.79
32735;BME280;19112;51.076;3.706;2022-09-01T12:06:25;101758.63;;;26.46;36.67
32735;BME280;19112;51.076;3.706;2022-09-01T12:08:58;101750.41;;;26.55;36.70
32735;BME280;19112;51.076;3.706;2022-09-01T12:11:32;101693.28;;;26.35;35.82
32735;BME280;19112;51.076;3.706;2022-09-01T12:14:07;101762.94;;;26.56;35.50
32735;BME280;19112;51.076;3.706;2022-09-01T12:16:37;101636.59;;;25.95;36.13
32735;BME280;19112;51.076;3.706;2022-09-01T12:19:05;101606.00;;;25.99;35.58
32735;BME280;19112;51.076;3.706;2022-09-01T12:21:35;101724.72;;;26.82;35.38
32735;BME280;19112;51.076;3.706;2022-09-01T12:24:20;101675.59;;;26.70;35.11
32735;BME280;19112;51.076;3.706;2022-09-01T12:26:50;101756.53;;;27.11;34.85
32735;BME280;19112;51.076;3.706;2022-09-01T12:29:19;101652.13;;;26.75;34.60
32735;BME280;19112;51.076;3.706;2022-09-01T12:31:47;101744.88;;;27.50;34.11
32735;BME280;19112;51.076;3.706;2022-09-01T12:37:09;101743.38;;;27.77;33.27
32735;BME280;19112;51.076;3.706;2022-09-01T12:39:48;101507.31;;;26.41;33.13
32735;BME280;19112;51.076;3.706;2022-09-01T12:44:53;101720.53;;;27.90;32.45
32735;BME280;19112;51.076;3.706;2022-09-01T12:52:46;101637.03;;;28.18;30.51
32735;BME280;19112;51.076;3.706;2022-09-01T12:55:23;101485.47;;;27.31;30.99
32735;BME280;19112;51.076;3.706;2022-09-01T12:57:56;101653.13;;;28.21;30.81
32735;BME280;19112;51.076;3.706;2022-09-01T13:00:27;101522.97;;;27.41;31.39
32735;BME280;19112;51.076;3.706;2022-09-01T13:08:05;101672.81;;;27.92;31.09
32735;BME280;19112;51.076;3.706;2022-09-01T13:10:36;101708.19;;;27.81;31.29
32735;BME280;19112;51.076;3.706;2022-09-01T13:13:05;101714.63;;;27.76;31.56
32735;BME280;19112;51.076;3.706;2022-09-01T13:15:32;101544.34;;;26.75;31.73
32735;BME280;19112;51.076;3.706;2022-09-01T13:17:58;101700.44;;;27.26;31.45
32735;BME280;19112;51.076;3.706;2022-09-01T13:20:24;101602.63;;;26.79;32.11
32735;BME280;19112;51.076;3.706;2022-09-01T13:22:50;101621.25;;;26.48;32.12
32735;BME280;19112;51.076;3.706;2022-09-01T13:25:20;101723.56;;;26.96;31.97
32735;BME280;19112;51.076;3.706;2022-09-01T13:27:46;101733.06;;;27.15;32.51
32735;BME280;19112;51.076;3.706;2022-09-01T13:30:16;101161.16;;;23.77;32.39
32735;BME280;19112;51.076;3.706;2022-09-01T13:32:44;101728.53;;;27.15;31.85
32735;BME280;19112;51.076;3.706;2022-09-01T13:35:13;101610.09;;;26.21;31.94
32735;BME280;19112;51.076;3.706;2022-09-01T13:37:40;101720.09;;;26.89;32.07
32735;BME280;19112;51.076;3.706;2022-09-01T13:40:07;101722.78;;;26.89;32.20
32735;BME280;19112;51.076;3.706;2022-09-01T13:42:38;101573.25;;;26.23;31.81
32735;BME280;19112;51.076;3.706;2022-09-01T13:45:04;101712.78;;;27.37;31.69
32735;BME280;19112;51.076;3.706;2022-09-01T13:47:30;101601.13;;;27.07;31.08
32735;BME280;19112;51.076;3.706;2022-09-01T13:49:57;101706.22;;;27.88;31.00
32735;BME280;19112;51.076;3.706;2022-09-01T13:52:23;101561.81;;;26.96;30.90
32735;BME280;19112;51.076;3.706;2022-09-01T13:54:49;101665.25;;;27.33;30.77
32735;BME280;19112;51.076;3.706;2022-09-01T13:57:15;101695.97;;;27.63;31.21
32735;BME280;19112;51.076;3.706;2022-09-01T13:59:42;101625.66;;;27.34;31.09
32735;BME280;19112;51.076;3.706;2022-09-01T14:02:08;101531.69;;;27.17;30.37
32735;BME280;19112;51.076;3.706;2022-09-01T14:04:35;101511.16;;;27.11;30.27
32735;BME280;19112;51.076;3.706;2022-09-01T14:07:01;101693.34;;;28.32;30.11
32735;BME280;19112;51.076;3.706;2022-09-01T14:09:27;101626.16;;;27.87;29.55
32735;BME280;19112;51.076;3.706;2022-09-01T14:11:53;101591.25;;;27.79;29.79
32735;BME280;19112;51.076;3.706;2022-09-01T14:14:20;101546.66;;;27.63;30.03
32735;BME280;19112;51.076;3.706;2022-09-01T14:16:46;101579.09;;;27.97;29.56
32735;BME280;19112;51.076;3.706;2022-09-01T14:19:12;101583.38;;;28.04;29.71
32735;BME280;19112;51.076;3.706;2022-09-01T14:21:38;101558.03;;;27.77;29.39
32735;BME280;19112;51.076;3.706;2022-09-01T14:24:04;101669.50;;;28.80;29.44